createdAt,value
2019-05-20T00:00:11.338Z,14.8
2019-05-20T00:00:47.428Z,14.8
2019-05-20T00:01:23.536Z,14.9
2019-05-20T00:01:59.416Z,14.9
2019-05-20T00:02:35.339Z,14.8
2019-05-20T00:03:11.443Z,14.8
2019-05-20T00:03:47.404Z,14.9
2019-05-20T00:04:23.370Z,14.8
2019-05-20T00:04:59.353Z,14.8
2019-05-20T00:05:35.525Z,14.8
2019-05-20T00:06:11.530Z,14.8
2019-05-20T00:06:47.428Z,14.8
2019-05-20T00:07:23.341Z,14.8
2019-05-20T00:07:59.428Z,14.8
2019-05-20T00:08:35.395Z,14.8
2019-05-20T00:09:11.361Z,14.8
2019-05-20T00:09:47.378Z,14.9
2019-05-20T00:10:23.419Z,14.8
2019-05-20T00:10:59.419Z,14.8
2019-05-20T00:11:35.364Z,14.8
2019-05-20T00:12:11.467Z,14.7
2019-05-20T00:12:47.526Z,14.8
2019-05-20T00:13:23.394Z,14.7
2019-05-20T00:13:59.357Z,14.7
2019-05-20T00:14:35.329Z,14.8
2019-05-20T00:15:11.428Z,14.7
2019-05-20T00:15:47.415Z,14.7
2019-05-20T00:16:23.876Z,14.7
2019-05-20T00:16:59.322Z,14.7
2019-05-20T00:17:35.580Z,14.6
2019-05-20T00:18:11.390Z,14.7
2019-05-20T00:18:47.363Z,14.6
2019-05-20T00:19:23.343Z,14.6
2019-05-20T00:19:59.413Z,14.7
2019-05-20T00:20:35.382Z,14.7
2019-05-20T00:21:11.358Z,14.6
2019-05-20T00:21:47.438Z,14.6
2019-05-20T00:22:23.410Z,14.6
2019-05-20T00:22:59.483Z,14.6
2019-05-20T00:23:35.343Z,14.6
2019-05-20T00:24:11.427Z,14.6
2019-05-20T00:24:47.407Z,14.6
2019-05-20T00:25:23.371Z,14.6
2019-05-20T00:25:59.336Z,14.6
2019-05-20T00:26:35.430Z,14.5
2019-05-20T00:27:11.413Z,14.6
2019-05-20T00:27:47.486Z,14.5
2019-05-20T00:28:23.443Z,14.5
2019-05-20T00:28:59.430Z,14.5
2019-05-20T00:29:35.397Z,14.5
2019-05-20T00:30:11.379Z,14.5
2019-05-20T00:30:47.354Z,14.6
2019-05-20T00:31:23.673Z,14.6
2019-05-20T00:31:59.395Z,14.6
2019-05-20T00:32:42.392Z,14.5
2019-05-20T00:33:11.358Z,14.6
2019-05-20T00:33:47.471Z,14.6
2019-05-20T00:34:35.715Z,14.4
2019-05-20T00:34:59.390Z,14.6
2019-05-20T00:35:35.335Z,14.5
2019-05-20T00:36:11.421Z,14.4
2019-05-20T00:36:59.426Z,14.6
2019-05-20T00:37:35.441Z,14.5
2019-05-20T00:38:11.375Z,14.5
2019-05-20T00:38:47.435Z,14.5
2019-05-20T00:39:23.414Z,14.6
2019-05-20T00:39:59.416Z,14.5
2019-05-20T00:40:35.357Z,14.5
2019-05-20T00:41:11.331Z,14.5
2019-05-20T00:41:47.408Z,14.5
2019-05-20T00:42:23.393Z,14.5
2019-05-20T00:42:59.407Z,14.5
2019-05-20T00:43:35.333Z,14.5
2019-05-20T00:44:11.514Z,14.5
2019-05-20T00:44:47.390Z,14.5
2019-05-20T00:45:23.352Z,14.5
2019-05-20T00:45:59.323Z,14.4
2019-05-20T00:46:35.404Z,14.4
2019-05-20T00:47:11.379Z,14.4
2019-05-20T00:47:47.353Z,14.5
2019-05-20T00:48:23.335Z,14.4
2019-05-20T00:48:59.414Z,14.3
2019-05-20T00:49:35.486Z,14.4
2019-05-20T00:50:11.354Z,14.4
2019-05-20T00:50:47.331Z,14.4
2019-05-20T00:51:23.408Z,14.3
2019-05-20T00:51:59.381Z,14.4
2019-05-20T00:52:35.361Z,14.4
2019-05-20T00:53:11.321Z,14.4
2019-05-20T00:53:47.409Z,14.3
2019-05-20T00:54:23.391Z,14.3
2019-05-20T00:54:59.461Z,14.4
2019-05-20T00:55:35.307Z,14.3
2019-05-20T00:56:11.400Z,14.3
2019-05-20T00:56:47.367Z,14.4
2019-05-20T00:57:23.342Z,14.2
2019-05-20T00:57:59.451Z,14.2
2019-05-20T00:58:35.391Z,14.3
2019-05-20T00:59:11.370Z,14.3
2019-05-20T00:59:47.362Z,14.2
2019-05-20T01:00:23.432Z,14.3
2019-05-20T01:00:59.392Z,14.2
2019-05-20T01:01:35.360Z,14.2
2019-05-20T01:02:11.327Z,14.2
2019-05-20T01:02:57.448Z,14.2
2019-05-20T01:03:23.386Z,14.2
2019-05-20T01:03:59.362Z,14.1
2019-05-20T01:04:35.328Z,14.1
2019-05-20T01:05:11.303Z,14.2
2019-05-20T01:05:47.439Z,14.1
2019-05-20T01:06:23.348Z,14.1
2019-05-20T01:06:59.319Z,14.1
2019-05-20T01:07:35.294Z,14.1
2019-05-20T01:08:11.390Z,14.1
2019-05-20T01:08:47.351Z,14.1
2019-05-20T01:09:23.331Z,14
2019-05-20T01:09:59.283Z,14
2019-05-20T01:10:35.385Z,14
2019-05-20T01:11:11.460Z,14
2019-05-20T01:11:47.329Z,14
2019-05-20T01:12:23.409Z,13.9
2019-05-20T01:12:59.492Z,13.9
2019-05-20T01:13:35.363Z,13.9
2019-05-20T01:14:11.323Z,14
2019-05-20T01:14:47.408Z,13.9
2019-05-20T01:15:23.383Z,14
2019-05-20T01:15:59.343Z,13.9
2019-05-20T01:16:35.430Z,13.9
2019-05-20T01:17:11.406Z,13.9
2019-05-20T01:17:47.370Z,13.9
2019-05-20T01:18:23.342Z,13.9
2019-05-20T01:18:59.310Z,13.9
2019-05-20T01:19:35.395Z,13.9
2019-05-20T01:20:11.370Z,13.8
2019-05-20T01:20:47.336Z,13.9
2019-05-20T01:21:23.305Z,13.8
2019-05-20T01:21:59.496Z,13.8
2019-05-20T01:22:35.369Z,13.9
2019-05-20T01:23:11.347Z,13.9
2019-05-20T01:23:47.324Z,13.8
2019-05-20T01:24:23.398Z,13.8
2019-05-20T01:24:59.377Z,13.8
2019-05-20T01:25:35.339Z,13.9
2019-05-20T01:26:11.297Z,13.9
2019-05-20T01:26:47.395Z,13.8
2019-05-20T01:27:23.430Z,13.9
2019-05-20T01:27:59.472Z,13.9
2019-05-20T01:28:35.317Z,13.9
2019-05-20T01:29:11.388Z,14
2019-05-20T01:29:47.365Z,14
2019-05-20T01:30:23.338Z,13.9
2019-05-20T01:30:59.308Z,13.9
2019-05-20T01:31:35.381Z,13.9
2019-05-20T01:32:11.365Z,13.9
2019-05-20T01:32:47.373Z,13.9
2019-05-20T01:33:23.289Z,13.9
2019-05-20T01:33:59.380Z,13.9
2019-05-20T01:34:35.358Z,13.9
2019-05-20T01:35:11.325Z,14
2019-05-20T01:35:47.290Z,13.9
2019-05-20T01:36:23.392Z,13.9
2019-05-20T01:36:59.347Z,13.9
2019-05-20T01:37:35.317Z,13.9
2019-05-20T01:38:11.330Z,13.8
2019-05-20T01:38:47.374Z,13.9
2019-05-20T01:39:23.428Z,13.9
2019-05-20T01:39:59.321Z,14
2019-05-20T01:40:35.287Z,14
2019-05-20T01:41:11.371Z,13.8
2019-05-20T01:41:47.396Z,13.9
2019-05-20T01:42:23.315Z,13.9
2019-05-20T01:42:59.402Z,13.9
2019-05-20T01:43:35.487Z,13.8
2019-05-20T01:44:11.342Z,13.9
2019-05-20T01:44:47.319Z,13.9
2019-05-20T01:45:23.279Z,13.9
2019-05-20T01:45:59.368Z,13.9
2019-05-20T01:46:35.369Z,13.9
2019-05-20T01:47:11.307Z,13.9
2019-05-20T01:47:47.277Z,13.9
2019-05-20T01:48:23.889Z,13.9
2019-05-20T01:48:59.467Z,13.8
2019-05-20T01:49:35.314Z,13.8
2019-05-20T01:50:11.280Z,13.8
2019-05-20T01:50:47.388Z,13.8
2019-05-20T01:51:23.342Z,13.9
2019-05-20T01:51:59.313Z,13.8
2019-05-20T01:52:35.280Z,13.9
2019-05-20T01:53:11.368Z,13.9
2019-05-20T01:53:47.342Z,13.8
2019-05-20T01:54:23.858Z,13.8
2019-05-20T01:54:59.277Z,13.8
2019-05-20T01:55:35.371Z,13.8
2019-05-20T01:56:11.356Z,13.8
2019-05-20T01:56:47.305Z,13.8
2019-05-20T01:57:23.282Z,13.8
2019-05-20T01:57:59.476Z,13.7
2019-05-20T01:58:35.333Z,13.8
2019-05-20T01:59:11.312Z,13.8
2019-05-20T01:59:47.434Z,13.7
2019-05-20T02:00:23.372Z,13.6
2019-05-20T02:00:59.336Z,13.7
2019-05-20T02:01:35.300Z,13.7
2019-05-20T02:02:11.398Z,13.7
2019-05-20T02:02:47.363Z,13.7
2019-05-20T02:03:32.669Z,13.7
2019-05-20T02:03:59.300Z,13.6
2019-05-20T02:04:35.412Z,13.6
2019-05-20T02:05:11.466Z,13.6
2019-05-20T02:05:47.336Z,13.6
2019-05-20T02:06:23.300Z,13.7
2019-05-20T02:06:59.401Z,13.6
2019-05-20T02:07:35.399Z,13.6
2019-05-20T02:08:11.330Z,13.6
2019-05-20T02:08:47.298Z,13.5
2019-05-20T02:09:23.395Z,13.6
2019-05-20T02:09:59.348Z,13.7
2019-05-20T02:10:35.433Z,13.6
2019-05-20T02:11:11.311Z,13.6
2019-05-20T02:11:47.378Z,13.6
2019-05-20T02:12:23.348Z,13.6
2019-05-20T02:12:59.431Z,13.7
2019-05-20T02:13:35.293Z,13.7
2019-05-20T02:14:11.382Z,13.6
2019-05-20T02:14:47.347Z,13.7
2019-05-20T02:15:23.307Z,13.7
2019-05-20T02:15:59.397Z,13.7
2019-05-20T02:16:35.375Z,13.6
2019-05-20T02:17:11.394Z,13.7
2019-05-20T02:17:47.315Z,13.7
2019-05-20T02:18:23.358Z,13.6
2019-05-20T02:18:59.374Z,13.7
2019-05-20T02:19:35.340Z,13.6
2019-05-20T02:20:11.315Z,13.7
2019-05-20T02:20:47.286Z,13.7
2019-05-20T02:21:23.653Z,13.7
2019-05-20T02:21:59.342Z,13.7
2019-05-20T02:22:35.334Z,13.6
2019-05-20T02:23:11.319Z,13.6
2019-05-20T02:23:47.376Z,13.5
2019-05-20T02:24:23.334Z,13.5
2019-05-20T02:24:59.370Z,13.6
2019-05-20T02:25:35.286Z,13.6
2019-05-20T02:26:11.383Z,13.6
2019-05-20T02:26:47.459Z,13.6
2019-05-20T02:27:23.324Z,13.5
2019-05-20T02:27:59.390Z,13.5
2019-05-20T02:28:35.354Z,13.6
2019-05-20T02:29:11.327Z,13.5
2019-05-20T02:31:50.582Z,13.5
2019-05-20T02:32:11.296Z,13.5
2019-05-20T02:32:47.264Z,13.5
2019-05-20T02:33:23.860Z,13.5
2019-05-20T02:33:59.332Z,13.5
2019-05-20T02:34:35.286Z,13.5
2019-05-20T02:35:11.285Z,13.5
2019-05-20T02:35:47.360Z,13.4
2019-05-20T02:36:23.320Z,13.4
2019-05-20T02:36:59.319Z,13.4
2019-05-20T02:37:35.258Z,13.4
2019-05-20T02:38:11.353Z,13.3
2019-05-20T02:38:47.318Z,13.4
2019-05-20T02:39:27.096Z,13.4
2019-05-20T02:39:59.268Z,13.4
2019-05-20T02:40:35.349Z,13.4
2019-05-20T02:41:11.311Z,13.4
2019-05-20T02:41:47.378Z,13.4
2019-05-20T02:42:23.289Z,13.3
2019-05-20T02:42:59.374Z,13.4
2019-05-20T02:43:35.324Z,13.4
2019-05-20T02:44:11.283Z,13.3
2019-05-20T02:44:47.255Z,13.3
2019-05-20T02:45:23.363Z,13.3
2019-05-20T02:45:59.324Z,13.4
2019-05-20T02:46:35.284Z,13.3
2019-05-20T02:47:11.371Z,13.3
2019-05-20T02:47:47.356Z,13.3
2019-05-20T02:48:23.324Z,13.3
2019-05-20T02:48:59.270Z,13.4
2019-05-20T02:49:35.360Z,13.3
2019-05-20T02:50:11.336Z,13.3
2019-05-20T02:50:47.309Z,13.4
2019-05-20T02:51:23.309Z,13.2
2019-05-20T02:51:59.369Z,13.4
2019-05-20T02:52:35.318Z,13.3
2019-05-20T02:53:11.329Z,13.4
2019-05-20T02:53:47.263Z,13.4
2019-05-20T02:54:23.366Z,13.4
2019-05-20T02:54:59.336Z,13.3
2019-05-20T02:55:35.297Z,13.3
2019-05-20T02:56:11.282Z,13.4
2019-05-20T02:56:47.382Z,13.4
2019-05-20T02:57:23.354Z,13.3
2019-05-20T02:57:59.306Z,13.3
2019-05-20T02:58:35.287Z,13.3
2019-05-20T02:59:11.345Z,13.3
2019-05-20T02:59:47.330Z,13.3
2019-05-20T03:00:23.293Z,13.3
2019-05-20T03:00:59.266Z,13.3
2019-05-20T03:01:35.361Z,13.3
2019-05-20T03:02:11.314Z,13.3
2019-05-20T03:02:47.380Z,13.3
2019-05-20T03:03:23.263Z,13.3
2019-05-20T03:04:12.772Z,13.2
2019-05-20T03:04:35.323Z,13.2
2019-05-20T03:05:11.297Z,13.3
2019-05-20T03:05:47.258Z,13.3
2019-05-20T03:06:23.353Z,13.2
2019-05-20T03:06:59.311Z,13.3
2019-05-20T03:07:35.273Z,13.3
2019-05-20T03:08:11.250Z,13.2
2019-05-20T03:08:47.350Z,13.2
2019-05-20T03:09:23.327Z,13.2
2019-05-20T03:09:59.277Z,13.2
2019-05-20T03:10:35.275Z,13.2
2019-05-20T03:11:23.271Z,13.2
2019-05-20T03:11:59.335Z,13.2
2019-05-20T03:12:35.346Z,13.2
2019-05-20T03:13:11.289Z,13.1
2019-05-20T03:13:47.241Z,13.2
2019-05-20T03:14:23.402Z,13.2
2019-05-20T03:14:59.323Z,13.1
2019-05-20T03:15:35.272Z,13.2
2019-05-20T03:16:13.243Z,13.2
2019-05-20T03:16:47.326Z,13.2
2019-05-20T03:17:23.298Z,13.2
2019-05-20T03:17:59.269Z,13.1
2019-05-20T03:18:35.237Z,13.1
2019-05-20T03:19:11.323Z,13.2
2019-05-20T03:19:59.340Z,13.2
2019-05-20T03:20:35.297Z,13.2
2019-05-20T03:21:11.268Z,13.1
2019-05-20T03:21:47.244Z,13.2
2019-05-20T03:22:23.347Z,13.2
2019-05-20T03:22:59.296Z,13.2
2019-05-20T03:23:35.270Z,13.1
2019-05-20T03:24:11.274Z,13.1
2019-05-20T03:24:47.329Z,13.1
2019-05-20T03:25:23.384Z,13.1
2019-05-20T03:25:59.289Z,13.2
2019-05-20T03:26:35.231Z,13.1
2019-05-20T03:27:11.344Z,13.2
2019-05-20T03:27:47.308Z,13.2
2019-05-20T03:28:23.268Z,13.2
2019-05-20T03:28:59.242Z,13.1
2019-05-20T03:29:35.319Z,13.2
2019-05-20T03:30:11.336Z,13.2
2019-05-20T03:30:47.274Z,13.1
2019-05-20T03:31:23.236Z,13.1
2019-05-20T03:31:59.310Z,13.1
2019-05-20T03:32:35.291Z,13.2
2019-05-20T03:33:11.258Z,13.1
2019-05-20T03:33:47.342Z,13.2
2019-05-20T03:34:48.228Z,13.2
2019-05-20T03:35:01.642Z,13.2
2019-05-20T03:35:35.343Z,13.1
2019-05-20T03:36:11.350Z,13.2
2019-05-20T03:36:47.316Z,13.2
2019-05-20T03:37:23.288Z,13.2
2019-05-20T03:37:59.256Z,13.2
2019-05-20T03:38:35.357Z,13.2
2019-05-20T03:39:11.436Z,13.2
2019-05-20T03:39:47.293Z,13.2
2019-05-20T03:40:23.249Z,13.1
2019-05-20T03:40:59.347Z,13.2
2019-05-20T03:41:35.328Z,13.2
2019-05-20T03:42:11.277Z,13.2
2019-05-20T03:42:47.243Z,13.1
2019-05-20T03:43:23.352Z,13.2
2019-05-20T03:43:59.307Z,13.2
2019-05-20T03:44:35.284Z,13.2
2019-05-20T03:45:11.273Z,13.2
2019-05-20T03:45:47.341Z,13.3
2019-05-20T03:46:23.306Z,13.2
2019-05-20T03:46:59.284Z,13.2
2019-05-20T03:47:35.267Z,13.2
2019-05-20T03:48:11.323Z,13.2
2019-05-20T03:48:47.302Z,13.2
2019-05-20T03:49:23.287Z,13.2
2019-05-20T03:49:59.234Z,13.2
2019-05-20T03:50:35.331Z,13.3
2019-05-20T03:51:11.289Z,13.2
2019-05-20T03:51:47.255Z,13.1
2019-05-20T03:52:23.247Z,13.3
2019-05-20T03:52:59.319Z,13.2
2019-05-20T03:53:35.304Z,13.2
2019-05-20T03:54:11.254Z,13.2
2019-05-20T03:54:47.225Z,13.2
2019-05-20T03:55:23.314Z,13.1
2019-05-20T03:55:59.288Z,13.2
2019-05-20T03:56:35.267Z,13.3
2019-05-20T03:57:11.226Z,13.3
2019-05-20T03:57:47.334Z,13.2
2019-05-20T03:58:23.307Z,13.3
2019-05-20T03:58:59.261Z,13.2
2019-05-20T03:59:35.247Z,13.3
2019-05-20T04:00:11.318Z,13.3
2019-05-20T04:00:47.499Z,13.3
2019-05-20T04:01:23.250Z,13.3
2019-05-20T04:01:59.240Z,13.4
2019-05-20T04:02:35.331Z,13.3
2019-05-20T04:03:11.300Z,13.3
2019-05-20T04:03:47.258Z,13.3
2019-05-20T04:04:25.568Z,13.3
2019-05-20T04:05:03.606Z,13.3
2019-05-20T04:05:35.278Z,13.4
2019-05-20T04:06:11.257Z,13.4
2019-05-20T04:06:47.216Z,13.3
2019-05-20T04:07:23.308Z,13.4
2019-05-20T04:07:59.277Z,13.4
2019-05-20T04:08:35.310Z,13.4
2019-05-20T04:09:11.205Z,13.4
2019-05-20T04:09:47.298Z,13.5
2019-05-20T04:10:23.282Z,13.5
2019-05-20T04:10:59.248Z,13.6
2019-05-20T04:11:35.209Z,13.5
2019-05-20T04:12:11.316Z,13.6
2019-05-20T04:12:47.380Z,13.6
2019-05-20T04:13:23.287Z,13.6
2019-05-20T04:13:59.238Z,13.5
2019-05-20T04:14:47.220Z,13.6
2019-05-20T04:15:23.296Z,13.7
2019-05-20T04:15:59.257Z,13.6
2019-05-20T04:16:35.240Z,13.8
2019-05-20T04:17:11.214Z,13.7
2019-05-20T04:17:47.302Z,13.8
2019-05-20T04:18:23.262Z,13.7
2019-05-20T04:18:59.266Z,13.9
2019-05-20T04:19:59.262Z,13.9
2019-05-20T04:20:35.230Z,13.9
2019-05-20T04:21:23.247Z,14
2019-05-20T04:21:59.319Z,14
2019-05-20T04:22:47.342Z,14.2
2019-05-20T04:23:23.294Z,14.2
2019-05-20T04:24:11.443Z,14.1
2019-05-20T04:24:59.299Z,14.1
2019-05-20T04:25:59.310Z,14.2
2019-05-20T04:26:47.312Z,14.2
2019-05-20T04:27:23.382Z,14.3
2019-05-20T04:27:59.255Z,14.3
2019-05-20T04:29:23.229Z,14.3
2019-05-20T04:29:59.301Z,14.4
2019-05-20T04:30:35.267Z,14.4
2019-05-20T04:31:11.246Z,14.4
2019-05-20T04:31:47.298Z,14.3
2019-05-20T04:32:23.307Z,14.3
2019-05-20T04:32:59.268Z,14.3
2019-05-20T04:33:35.270Z,14.3
2019-05-20T04:34:11.205Z,14.3
2019-05-20T04:34:59.222Z,14.4
2019-05-20T04:35:35.319Z,14.3
2019-05-20T04:36:11.271Z,14.4
2019-05-20T04:36:47.250Z,14.3
2019-05-20T04:37:23.209Z,14.3
2019-05-20T04:37:59.294Z,14.4
2019-05-20T04:38:35.289Z,14.3
2019-05-20T04:39:11.239Z,14.4
2019-05-20T04:39:47.195Z,14.4
2019-05-20T04:40:23.311Z,14.3
2019-05-20T04:40:59.262Z,14.3
2019-05-20T04:41:36.239Z,14.3
2019-05-20T04:42:11.206Z,14.4
2019-05-20T04:42:47.288Z,14.4
2019-05-20T04:43:35.292Z,14.3
2019-05-20T04:44:11.254Z,14.4
2019-05-20T04:44:59.286Z,14.3
2019-05-20T04:45:35.287Z,14.3
2019-05-20T04:46:11.192Z,14.5
2019-05-20T04:46:47.280Z,14.4
2019-05-20T04:47:23.264Z,14.4
2019-05-20T04:47:59.257Z,14.4
2019-05-20T04:48:35.217Z,14.4
2019-05-20T04:49:11.283Z,14.3
2019-05-20T04:49:47.247Z,14.5
2019-05-20T04:50:23.239Z,14.4
2019-05-20T04:50:59.212Z,14.5
2019-05-20T04:51:35.294Z,14.5
2019-05-20T04:52:11.365Z,14.5
2019-05-20T04:52:47.236Z,14.8
2019-05-20T04:53:23.193Z,14.7
2019-05-20T04:53:59.276Z,14.9
2019-05-20T04:54:47.278Z,14.9
2019-05-20T04:55:23.247Z,15.2
2019-05-20T04:55:59.241Z,15.3
2019-05-20T04:56:35.203Z,15.3
2019-05-20T04:57:11.272Z,15.4
2019-05-20T04:57:47.260Z,15.6
2019-05-20T04:58:23.216Z,15.5
2019-05-20T04:58:59.180Z,15.6
2019-05-20T04:59:35.285Z,15.8
2019-05-20T05:00:11.273Z,15.8
2019-05-20T05:00:47.213Z,15.8
2019-05-20T05:01:23.204Z,15.9
2019-05-20T05:01:59.267Z,15.9
2019-05-20T05:02:35.253Z,15.9
2019-05-20T05:03:11.218Z,15.9
2019-05-20T05:03:47.180Z,15.9
2019-05-20T05:04:23.279Z,15.8
2019-05-20T05:04:59.237Z,15.8
2019-05-20T05:05:38.141Z,15.7
2019-05-20T05:06:11.174Z,15.7
2019-05-20T05:06:47.285Z,15.7
2019-05-20T05:07:23.231Z,15.7
2019-05-20T05:07:59.190Z,15.7
2019-05-20T05:08:35.174Z,15.8
2019-05-20T05:09:11.258Z,15.8
2019-05-20T05:09:47.245Z,15.7
2019-05-20T05:10:23.222Z,15.7
2019-05-20T05:10:59.283Z,15.7
2019-05-20T05:11:35.261Z,15.6
2019-05-20T05:12:11.317Z,15.6
2019-05-20T05:12:47.253Z,15.6
2019-05-20T05:13:23.331Z,15.6
2019-05-20T05:13:59.245Z,15.6
2019-05-20T05:14:35.223Z,15.6
2019-05-20T05:15:11.248Z,15.5
2019-05-20T05:15:47.277Z,15.5
2019-05-20T05:16:23.245Z,15.5
2019-05-20T05:16:59.222Z,15.6
2019-05-20T05:17:35.203Z,15.5
2019-05-20T05:18:11.275Z,15.6
2019-05-20T05:18:47.245Z,15.5
2019-05-20T05:19:23.220Z,15.6
2019-05-20T05:19:59.183Z,15.6
2019-05-20T05:20:35.270Z,15.6
2019-05-20T05:21:11.244Z,15.7
2019-05-20T05:21:47.205Z,15.7
2019-05-20T05:22:23.185Z,15.7
2019-05-20T05:22:59.280Z,15.7
2019-05-20T05:23:35.239Z,15.7
2019-05-20T05:24:11.276Z,15.8
2019-05-20T05:24:47.185Z,15.7
2019-05-20T05:25:23.274Z,15.8
2019-05-20T05:25:59.282Z,15.9
2019-05-20T05:26:35.200Z,16
2019-05-20T05:27:11.178Z,16
2019-05-20T05:27:47.270Z,16.1
2019-05-20T05:28:23.250Z,16.2
2019-05-20T05:28:59.206Z,16.2
2019-05-20T05:29:35.179Z,16.2
2019-05-20T05:30:11.278Z,16.3
2019-05-20T05:30:47.225Z,16.2
2019-05-20T05:31:23.199Z,16.2
2019-05-20T05:31:59.169Z,16.2
2019-05-20T05:32:35.262Z,16.2
2019-05-20T05:33:11.242Z,16.3
2019-05-20T05:33:47.219Z,16.2
2019-05-20T05:34:23.174Z,16.3
2019-05-20T05:34:59.259Z,16.4
2019-05-20T05:35:35.229Z,16.5
2019-05-20T05:36:11.203Z,16.6
2019-05-20T05:36:47.167Z,16.6
2019-05-20T05:37:23.260Z,16.8
2019-05-20T05:37:59.510Z,16.9
2019-05-20T05:38:35.184Z,17
2019-05-20T05:39:11.193Z,17.2
2019-05-20T05:39:47.251Z,17.3
2019-05-20T05:40:23.280Z,17.4
2019-05-20T05:40:59.197Z,17.5
2019-05-20T05:41:35.163Z,17.5
2019-05-20T05:42:11.251Z,17.7
2019-05-20T05:42:47.210Z,17.7
2019-05-20T05:43:23.188Z,17.8
2019-05-20T05:43:59.162Z,17.9
2019-05-20T05:44:35.252Z,18
2019-05-20T05:45:11.233Z,18.1
2019-05-20T05:45:47.186Z,18.2
2019-05-20T05:46:23.176Z,18.2
2019-05-20T05:46:59.238Z,18.2
2019-05-20T05:47:35.225Z,18.3
2019-05-20T05:48:11.214Z,18.3
2019-05-20T05:48:47.151Z,18.4
2019-05-20T05:49:23.243Z,18.4
2019-05-20T05:49:59.217Z,18.4
2019-05-20T05:50:35.183Z,18.6
2019-05-20T05:51:11.158Z,18.7
2019-05-20T05:51:47.244Z,18.7
2019-05-20T05:52:23.361Z,18.9
2019-05-20T05:52:59.179Z,18.9
2019-05-20T05:53:35.160Z,18.9
2019-05-20T05:54:11.224Z,19
2019-05-20T05:54:47.211Z,19.2
2019-05-20T05:55:23.190Z,19.2
2019-05-20T05:55:59.140Z,19.1
2019-05-20T05:56:35.238Z,19.2
2019-05-20T05:57:11.200Z,19.2
2019-05-20T05:57:47.170Z,19.2
2019-05-20T05:58:23.151Z,19.3
2019-05-20T05:58:59.246Z,19.4
2019-05-20T05:59:35.204Z,19.5
2019-05-20T06:00:11.177Z,19.6
2019-05-20T06:00:47.154Z,19.8
2019-05-20T06:01:23.247Z,19.8
2019-05-20T06:01:59.214Z,19.9
2019-05-20T06:02:35.180Z,20.1
2019-05-20T06:03:11.154Z,20.1
2019-05-20T06:03:47.222Z,20.2
2019-05-20T06:04:23.194Z,20.3
2019-05-20T06:04:59.161Z,20.4
2019-05-20T06:05:35.135Z,20.5
2019-05-20T06:06:13.589Z,20.5
2019-05-20T06:06:47.187Z,20.7
2019-05-20T06:07:23.167Z,20.7
2019-05-20T06:07:59.123Z,20.6
2019-05-20T06:08:35.204Z,20.7
2019-05-20T06:09:11.203Z,20.6
2019-05-20T06:09:47.150Z,20.8
2019-05-20T06:10:23.240Z,20.8
2019-05-20T06:10:59.238Z,20.9
2019-05-20T06:11:35.188Z,21
2019-05-20T06:12:11.191Z,21.2
2019-05-20T06:12:47.253Z,21
2019-05-20T06:13:23.207Z,21.1
2019-05-20T06:13:59.176Z,21
2019-05-20T06:14:35.154Z,21
2019-05-20T06:15:11.279Z,21
2019-05-20T06:15:47.199Z,21
2019-05-20T06:16:37.152Z,21.1
2019-05-20T06:16:59.144Z,21.1
2019-05-20T06:17:35.237Z,21.2
2019-05-20T06:18:11.252Z,21.4
2019-05-20T06:18:47.191Z,21.4
2019-05-20T06:19:23.145Z,21.5
2019-05-20T06:19:59.268Z,21.7
2019-05-20T06:20:35.208Z,21.7
2019-05-20T06:21:11.158Z,21.8
2019-05-20T06:21:47.168Z,21.8
2019-05-20T06:22:23.233Z,21.8
2019-05-20T06:22:59.237Z,21.9
2019-05-20T06:23:35.156Z,21.9
2019-05-20T06:24:11.180Z,21.8
2019-05-20T06:24:47.211Z,21.8
2019-05-20T06:25:23.227Z,21.7
2019-05-20T06:25:59.166Z,21.7
2019-05-20T06:26:35.129Z,21.7
2019-05-20T06:27:11.224Z,21.7
2019-05-20T06:27:47.216Z,21.5
2019-05-20T06:28:23.193Z,21.4
2019-05-20T06:29:03.145Z,21.3
2019-05-20T06:29:35.264Z,21.1
2019-05-20T06:30:11.238Z,21
2019-05-20T06:30:47.163Z,20.9
2019-05-20T06:31:23.203Z,20.8
2019-05-20T06:31:59.224Z,21
2019-05-20T06:32:35.197Z,21
2019-05-20T06:33:11.159Z,20.9
2019-05-20T06:33:47.122Z,20.8
2019-05-20T06:34:23.205Z,21
2019-05-20T06:34:59.177Z,21
2019-05-20T06:35:35.153Z,21.2
2019-05-20T06:36:27.124Z,21.2
2019-05-20T06:36:47.221Z,21.1
2019-05-20T06:37:23.174Z,20.9
2019-05-20T06:37:59.182Z,21
2019-05-20T06:38:35.180Z,20.9
2019-05-20T06:39:11.200Z,20.8
2019-05-20T06:39:47.184Z,20.8
2019-05-20T06:40:23.144Z,20.6
2019-05-20T06:40:59.134Z,20.6
2019-05-20T06:41:35.210Z,20.4
2019-05-20T06:42:11.170Z,20.4
2019-05-20T06:42:47.153Z,20.5
2019-05-20T06:43:23.125Z,20.5
2019-05-20T06:43:59.272Z,20.5
2019-05-20T06:44:54.010Z,20.8
2019-05-20T06:45:11.162Z,21
2019-05-20T06:45:47.097Z,21
2019-05-20T06:46:23.197Z,21.2
2019-05-20T06:46:59.167Z,21.2
2019-05-20T06:47:35.172Z,21.4
2019-05-20T06:48:11.109Z,21.5
2019-05-20T06:48:47.239Z,21.5
2019-05-20T06:49:23.161Z,21.6
2019-05-20T06:49:59.132Z,21.6
2019-05-20T06:50:35.116Z,21.8
2019-05-20T06:51:11.191Z,21.9
2019-05-20T06:51:47.157Z,22.1
2019-05-20T06:52:36.319Z,22.1
2019-05-20T06:52:59.100Z,22.1
2019-05-20T06:53:35.187Z,22.3
2019-05-20T06:54:11.179Z,22.3
2019-05-20T06:54:47.136Z,22.3
2019-05-20T06:55:23.110Z,22.4
2019-05-20T06:55:59.181Z,22.4
2019-05-20T06:56:35.344Z,22.2
2019-05-20T06:57:11.543Z,22.2
2019-05-20T06:57:47.094Z,22.1
2019-05-20T06:58:23.191Z,22.1
2019-05-20T06:58:59.164Z,22
2019-05-20T06:59:35.152Z,21.9
2019-05-20T07:00:11.179Z,21.8
2019-05-20T07:00:47.178Z,21.8
2019-05-20T07:01:23.159Z,21.9
2019-05-20T07:01:59.253Z,21.7
2019-05-20T07:02:35.123Z,21.6
2019-05-20T07:03:11.177Z,21.6
2019-05-20T07:03:47.161Z,21.7
2019-05-20T07:04:23.116Z,21.7
2019-05-20T07:04:59.113Z,21.9
2019-05-20T07:05:35.198Z,21.9
2019-05-20T07:06:11.155Z,22
2019-05-20T07:06:48.037Z,22
2019-05-20T07:07:23.073Z,22
2019-05-20T07:08:01.712Z,22
2019-05-20T07:08:35.151Z,21.9
2019-05-20T07:09:11.148Z,21.8
2019-05-20T07:09:47.073Z,21.7
2019-05-20T07:10:23.181Z,21.8
2019-05-20T07:10:59.153Z,21.8
2019-05-20T07:11:35.147Z,21.7
2019-05-20T07:12:11.078Z,21.6
2019-05-20T07:12:47.193Z,21.6
2019-05-20T07:13:23.139Z,21.5
2019-05-20T07:13:59.122Z,21.4
2019-05-20T07:14:35.119Z,21.3
2019-05-20T07:15:11.213Z,21.2
2019-05-20T07:15:47.138Z,21.1
2019-05-20T07:16:23.111Z,21.1
2019-05-20T07:16:59.194Z,21
2019-05-20T07:17:35.173Z,20.8
2019-05-20T07:18:11.330Z,20.8
2019-05-20T07:18:47.153Z,20.8
2019-05-20T07:19:23.179Z,20.8
2019-05-20T07:20:11.189Z,20.8
2019-05-20T07:20:47.188Z,20.9
2019-05-20T07:21:23.139Z,20.9
2019-05-20T07:21:59.095Z,21
2019-05-20T07:22:56.042Z,21
2019-05-20T07:23:11.155Z,21.2
2019-05-20T07:23:47.137Z,21.4
2019-05-20T07:24:23.109Z,21.5
2019-05-20T07:24:59.190Z,21.6
2019-05-20T07:25:35.178Z,21.7
2019-05-20T07:26:11.134Z,21.9
2019-05-20T07:26:47.089Z,21.9
2019-05-20T07:27:23.220Z,21.9
2019-05-20T07:27:59.160Z,22
2019-05-20T07:28:35.142Z,22.1
2019-05-20T07:29:11.091Z,22
2019-05-20T07:29:47.184Z,22
2019-05-20T07:30:23.164Z,22.1
2019-05-20T07:30:59.393Z,22.2
2019-05-20T07:31:35.109Z,22.1
2019-05-20T07:32:11.176Z,22.2
2019-05-20T07:32:59.168Z,22.2
2019-05-20T07:33:35.150Z,22.3
2019-05-20T07:34:11.130Z,22.3
2019-05-20T07:34:47.118Z,22.2
2019-05-20T07:35:31.192Z,22.2
2019-05-20T07:35:59.145Z,22.2
2019-05-20T07:36:35.146Z,22.2
2019-05-20T07:37:11.078Z,22.2
2019-05-20T07:37:47.174Z,22.2
2019-05-20T07:38:23.155Z,22.2
2019-05-20T07:38:59.165Z,22.1
2019-05-20T07:39:35.087Z,22.1
2019-05-20T07:40:11.198Z,22.1
2019-05-20T07:40:47.146Z,22
2019-05-20T07:41:23.100Z,21.9
2019-05-20T07:41:59.092Z,21.8
2019-05-20T07:42:35.271Z,21.7
2019-05-20T07:43:11.134Z,21.8
2019-05-20T07:43:47.096Z,21.7
2019-05-20T07:44:23.101Z,21.7
2019-05-20T07:44:59.161Z,21.7
2019-05-20T07:45:35.653Z,21.7
2019-05-20T07:46:11.107Z,21.7
2019-05-20T07:46:47.100Z,21.7
2019-05-20T07:47:23.176Z,21.6
2019-05-20T07:47:59.137Z,21.7
2019-05-20T07:48:35.215Z,21.7
2019-05-20T07:49:11.823Z,21.7
2019-05-20T07:49:47.158Z,21.8
2019-05-20T07:50:23.262Z,21.7
2019-05-20T07:50:59.103Z,21.8
2019-05-20T07:51:35.064Z,21.8
2019-05-20T07:52:11.410Z,21.9
2019-05-20T07:52:47.131Z,22
2019-05-20T07:53:23.089Z,22.2
2019-05-20T07:53:59.248Z,22.2
2019-05-20T07:54:35.146Z,22.3
2019-05-20T07:55:11.122Z,22.5
2019-05-20T07:55:47.083Z,22.6
2019-05-20T07:56:23.054Z,22.7
2019-05-20T07:56:59.176Z,22.8
2019-05-20T07:57:35.115Z,22.9
2019-05-20T07:58:11.113Z,23
2019-05-20T07:58:47.054Z,23.2
2019-05-20T07:59:23.132Z,23.3
2019-05-20T07:59:59.112Z,23.6
2019-05-20T08:00:35.090Z,23.6
2019-05-20T08:01:11.079Z,23.7
2019-05-20T08:01:47.214Z,23.8
2019-05-20T08:02:23.110Z,24
2019-05-20T08:02:59.089Z,24.2
2019-05-20T08:03:38.868Z,24.3
2019-05-20T08:04:11.147Z,24.4
2019-05-20T08:04:47.176Z,24.5
2019-05-20T08:05:23.079Z,24.6
2019-05-20T08:05:59.041Z,24.6
2019-05-20T08:06:35.158Z,24.7
2019-05-20T08:07:41.522Z,25